Apollo — WDC2576 — position and weather

sailwx.info

Track history (hours):
 
Tides and Currents Weather Stations Pressure Air Temp Water Temp Dewpoint Dewpoint Depression Visibility Wind Speed Wind Dir Waves Ship Positions

Apollo

Owner: Kirby Inland Marine LP, Houston, TX. More information available from US FCC via Universal Licensing System and Coast Guard Vessel Documentation Center.

Last reported at 2017-Sep-20 14:31 UTC. Time now 2017-Sep-20 23:54 UTC.
Position N 30°03' W 093°44'.

Length 114 m; draft 3 m.

Type: . MMSI: 366995180.

Date/timePositionNaut miles runAvg speedWind from/ knotsBaromVisibWave heightAir tempDewpointWater temp
2017-Sep-20 14:31N 30°03' W 093°44'6 5.3
2017-Sep-20 13:28N 30°04' W 093°37'4 5.2
2017-Sep-20 12:44N 30°04' W 093°33'1 5.1
2017-Sep-20 12:30N 30°04' W 093°31'3 5.3
2017-Sep-20 12:00N 30°04' W 093°28'3 5.3
2017-Sep-20 11:30N 30°04' W 093°25'3 5.3
2017-Sep-20 11:00N 30°04' W 093°22'2 4.4
2017-Sep-20 10:30N 30°05' W 093°20'2 4.1
2017-Sep-20 10:00N 30°06' W 093°18'2 3.5
2017-Sep-20 09:30N 30°04' W 093°16'1 2.4
2017-Sep-20 09:00N 30°03' W 093°16'2 4.8
2017-Sep-20 08:30N 30°01' W 093°14'3 5.6
2017-Sep-20 08:00N 29°59' W 093°12'3 5.8
2017-Sep-20 07:30N 29°57' W 093°10'3 5.0
2017-Sep-20 07:00N 29°56' W 093°07'3 5.3
2017-Sep-20 06:30N 29°56' W 093°04'2 4.4
2017-Sep-20 06:00N 29°56' W 093°02'36 4.4
2017-Sep-19 21:52N 29°51' W 092°21'2 4.9
2017-Sep-19 21:30N 29°50' W 092°19'2 4.1
2017-Sep-19 21:00N 29°49' W 092°17'2 5.0
2017-Sep-19 20:30N 29°48' W 092°15'2 4.8
2017-Sep-19 20:00N 29°47' W 092°12'2 4.4
2017-Sep-19 19:30N 29°47' W 092°10'3 5.5
2017-Sep-19 19:00N 29°48' W 092°07'3 5.5
2017-Sep-19 18:30N 29°49' W 092°04'3 5.3
2017-Sep-19 18:01N 29°49' W 092°01'59 4.5
2017-Sep-19 04:50N 29°34' W 090°55'2 5.4
2017-Sep-19 04:24N 29°32' W 090°53'2 5.1
2017-Sep-19 03:57N 29°32' W 090°50'2 5.2
2017-Sep-19 03:30N 29°32' W 090°48'2 4.5
2017-Sep-19 03:00N 29°33' W 090°45'2 4.2
2017-Sep-19 02:30N 29°34' W 090°43'2 3.3
2017-Sep-19 02:00N 29°36' W 090°43'1 2.8
2017-Sep-19 01:30N 29°37' W 090°41'0 0.3
2017-Sep-19 01:00N 29°37' W 090°41'1 2.8
2017-Sep-19 00:30N 29°36' W 090°40'3 5.2
2017-Sep-19 00:00N 29°35' W 090°37'3 5.0
2017-Sep-18 23:30N 29°34' W 090°34'3 5.2
2017-Sep-18 23:00N 29°34' W 090°32'3 5.4
2017-Sep-18 22:30N 29°34' W 090°28'4 5.0
2017-Sep-18 21:42N 29°33' W 090°24'  
2017-Sep-12 04:56N 29°34' W 090°31'3 7.0
2017-Sep-12 04:30N 29°34' W 090°34'3 6.5
2017-Sep-12 04:00N 29°35' W 090°38'3 6.1
2017-Sep-12 03:30N 29°36' W 090°41'2 3.6
2017-Sep-12 03:00N 29°35' W 090°43'2 4.5
2017-Sep-12 02:30N 29°34' W 090°44'3 5.7
2017-Sep-12 02:00N 29°32' W 090°47'4 7.4
2017-Sep-12 01:29N 29°32' W 090°52'3 7.2
2017-Sep-12 01:00N 29°33' W 090°55'59 5.6
2017-Sep-11 14:25N 29°50' W 092°01'3 6.9
2017-Sep-11 14:00N 29°49' W 092°04'4 7.0
2017-Sep-11 13:29N 29°47' W 092°08'3 6.8
2017-Sep-11 13:00N 29°47' W 092°11'3 5.3
2017-Sep-11 12:29N 29°48' W 092°14'2 4.1
2017-Sep-11 12:00N 29°49' W 092°16'3 5.8
2017-Sep-11 11:29N 29°50' W 092°19'35 6.2
2017-Sep-11 05:51N 29°56' W 092°59'2 6.2
2017-Sep-11 05:29N 29°56' W 093°02'3 6.0
2017-Sep-11 05:00N 29°56' W 093°05'3 6.0
2017-Sep-11 04:28N 29°56' W 093°09'3 5.7
2017-Sep-11 04:00N 29°58' W 093°11'3 5.8
2017-Sep-11 03:29N 30°00' W 093°13'2 3.4
2017-Sep-11 02:55N 30°02' W 093°15'1 3.3
2017-Sep-11 02:30N 30°03' W 093°16'2 4.0
2017-Sep-11 01:57N 30°05' W 093°17'2 4.4
2017-Sep-11 01:30N 30°06' W 093°18'0 0.4
2017-Sep-11 01:00N 30°06' W 093°18'0 0.0
2017-Sep-11 00:30N 30°06' W 093°18'0 0.0
2017-Sep-11 00:00N 30°06' W 093°18'0 0.0
2017-Sep-10 23:30N 30°06' W 093°18'0 0.0
2017-Sep-10 23:00N 30°06' W 093°18'0 0.0
2017-Sep-10 22:30N 30°06' W 093°18'0 0.0
2017-Sep-10 22:00N 30°06' W 093°18'0 0.0
2017-Sep-10 21:30N 30°06' W 093°18'0 0.0
2017-Sep-10 21:00N 30°06' W 093°18'0 0.0
2017-Sep-10 20:30N 30°06' W 093°18'0 0.0
2017-Sep-10 20:00N 30°06' W 093°18'0 0.0
2017-Sep-10 19:30N 30°06' W 093°18'0 0.0
2017-Sep-10 19:00N 30°06' W 093°18'0 0.0
2017-Sep-10 18:30N 30°06' W 093°18'0 0.0
2017-Sep-10 18:00N 30°06' W 093°18'0 0.0
2017-Sep-10 17:30N 30°06' W 093°18'0 0.0
2017-Sep-10 17:00N 30°06' W 093°18'0 0.0
2017-Sep-10 16:30N 30°06' W 093°18'0 0.0
2017-Sep-10 16:00N 30°06' W 093°18'0 0.0
2017-Sep-10 15:30N 30°06' W 093°18'0 0.0
2017-Sep-10 15:00N 30°06' W 093°18'  
Track history (hours):
 
Tides and Currents Weather Stations Pressure Air Temp Water Temp Dewpoint Dewpoint Depression Visibility Wind Speed Wind Dir Waves Ship Positions

Apollo

Owner: Kirby Inland Marine LP, Houston, TX. More information available from US FCC via Universal Licensing System and Coast Guard Vessel Documentation Center.

Last reported at 2017-Sep-20 14:31 UTC. Time now 2017-Sep-20 23:54 UTC.
Position N 30°03' W 093°44'.

Length 114 m; draft 3 m.

Type: . MMSI: 366995180.

Date/timePositionNaut miles runAvg speedWind from/ knotsBaromVisibWave heightAir tempDewpointWater temp
2017-Sep-20 14:31N 30°03' W 093°44'6 5.3
2017-Sep-20 13:28N 30°04' W 093°37'4 5.2
2017-Sep-20 12:44N 30°04' W 093°33'1 5.1
2017-Sep-20 12:30N 30°04' W 093°31'3 5.3
2017-Sep-20 12:00N 30°04' W 093°28'3 5.3
2017-Sep-20 11:30N 30°04' W 093°25'3 5.3
2017-Sep-20 11:00N 30°04' W 093°22'2 4.4
2017-Sep-20 10:30N 30°05' W 093°20'2 4.1
2017-Sep-20 10:00N 30°06' W 093°18'2 3.5
2017-Sep-20 09:30N 30°04' W 093°16'1 2.4
2017-Sep-20 09:00N 30°03' W 093°16'2 4.8
2017-Sep-20 08:30N 30°01' W 093°14'3 5.6
2017-Sep-20 08:00N 29°59' W 093°12'3 5.8
2017-Sep-20 07:30N 29°57' W 093°10'3 5.0
2017-Sep-20 07:00N 29°56' W 093°07'3 5.3
2017-Sep-20 06:30N 29°56' W 093°04'2 4.4
2017-Sep-20 06:00N 29°56' W 093°02'36 4.4
2017-Sep-19 21:52N 29°51' W 092°21'2 4.9
2017-Sep-19 21:30N 29°50' W 092°19'2 4.1
2017-Sep-19 21:00N 29°49' W 092°17'2 5.0
2017-Sep-19 20:30N 29°48' W 092°15'2 4.8
2017-Sep-19 20:00N 29°47' W 092°12'2 4.4
2017-Sep-19 19:30N 29°47' W 092°10'3 5.5
2017-Sep-19 19:00N 29°48' W 092°07'3 5.5
2017-Sep-19 18:30N 29°49' W 092°04'3 5.3
2017-Sep-19 18:01N 29°49' W 092°01'59 4.5
2017-Sep-19 04:50N 29°34' W 090°55'2 5.4
2017-Sep-19 04:24N 29°32' W 090°53'2 5.1
2017-Sep-19 03:57N 29°32' W 090°50'2 5.2
2017-Sep-19 03:30N 29°32' W 090°48'2 4.5
2017-Sep-19 03:00N 29°33' W 090°45'2 4.2
2017-Sep-19 02:30N 29°34' W 090°43'2 3.3
2017-Sep-19 02:00N 29°36' W 090°43'1 2.8
2017-Sep-19 01:30N 29°37' W 090°41'0 0.3
2017-Sep-19 01:00N 29°37' W 090°41'1 2.8
2017-Sep-19 00:30N 29°36' W 090°40'3 5.2
2017-Sep-19 00:00N 29°35' W 090°37'3 5.0
2017-Sep-18 23:30N 29°34' W 090°34'3 5.2
2017-Sep-18 23:00N 29°34' W 090°32'3 5.4
2017-Sep-18 22:30N 29°34' W 090°28'4 5.0
2017-Sep-18 21:42N 29°33' W 090°24'  
2017-Sep-12 04:56N 29°34' W 090°31'3 7.0
2017-Sep-12 04:30N 29°34' W 090°34'3 6.5
2017-Sep-12 04:00N 29°35' W 090°38'3 6.1
2017-Sep-12 03:30N 29°36' W 090°41'2 3.6
2017-Sep-12 03:00N 29°35' W 090°43'2 4.5
2017-Sep-12 02:30N 29°34' W 090°44'3 5.7
2017-Sep-12 02:00N 29°32' W 090°47'4 7.4
2017-Sep-12 01:29N 29°32' W 090°52'3 7.2
2017-Sep-12 01:00N 29°33' W 090°55'59 5.6
2017-Sep-11 14:25N 29°50' W 092°01'3 6.9
2017-Sep-11 14:00N 29°49' W 092°04'4 7.0
2017-Sep-11 13:29N 29°47' W 092°08'3 6.8
2017-Sep-11 13:00N 29°47' W 092°11'3 5.3
2017-Sep-11 12:29N 29°48' W 092°14'2 4.1
2017-Sep-11 12:00N 29°49' W 092°16'3 5.8
2017-Sep-11 11:29N 29°50' W 092°19'35 6.2
2017-Sep-11 05:51N 29°56' W 092°59'2 6.2
2017-Sep-11 05:29N 29°56' W 093°02'3 6.0
2017-Sep-11 05:00N 29°56' W 093°05'3 6.0
2017-Sep-11 04:28N 29°56' W 093°09'3 5.7
2017-Sep-11 04:00N 29°58' W 093°11'3 5.8
2017-Sep-11 03:29N 30°00' W 093°13'2 3.4
2017-Sep-11 02:55N 30°02' W 093°15'1 3.3
2017-Sep-11 02:30N 30°03' W 093°16'2 4.0
2017-Sep-11 01:57N 30°05' W 093°17'2 4.4
2017-Sep-11 01:30N 30°06' W 093°18'0 0.4
2017-Sep-11 01:00N 30°06' W 093°18'0 0.0
2017-Sep-11 00:30N 30°06' W 093°18'0 0.0
2017-Sep-11 00:00N 30°06' W 093°18'0 0.0
2017-Sep-10 23:30N 30°06' W 093°18'0 0.0
2017-Sep-10 23:00N 30°06' W 093°18'0 0.0
2017-Sep-10 22:30N 30°06' W 093°18'0 0.0
2017-Sep-10 22:00N 30°06' W 093°18'0 0.0
2017-Sep-10 21:30N 30°06' W 093°18'0 0.0
2017-Sep-10 21:00N 30°06' W 093°18'0 0.0
2017-Sep-10 20:30N 30°06' W 093°18'0 0.0
2017-Sep-10 20:00N 30°06' W 093°18'0 0.0
2017-Sep-10 19:30N 30°06' W 093°18'0 0.0
2017-Sep-10 19:00N 30°06' W 093°18'0 0.0
2017-Sep-10 18:30N 30°06' W 093°18'0 0.0
2017-Sep-10 18:00N 30°06' W 093°18'0 0.0
2017-Sep-10 17:30N 30°06' W 093°18'0 0.0
2017-Sep-10 17:00N 30°06' W 093°18'0 0.0
2017-Sep-10 16:30N 30°06' W 093°18'0 0.0
2017-Sep-10 16:00N 30°06' W 093°18'0 0.0
2017-Sep-10 15:30N 30°06' W 093°18'0 0.0
2017-Sep-10 15:00N 30°06' W 093°18'  

Dump ship's entire track history